sensor_id;sensor_type;location;lat;lon;timestamp;temperature;humidity
19847;DHT22;10084;50.518;8.588;2023-11-22T00:02:18;5.90;79.90
19847;DHT22;10084;50.518;8.588;2023-11-22T00:04:44;5.90;79.90
19847;DHT22;10084;50.518;8.588;2023-11-22T00:07:09;6.00;80.00
19847;DHT22;10084;50.518;8.588;2023-11-22T00:09:35;6.00;80.00
19847;DHT22;10084;50.518;8.588;2023-11-22T00:12:01;6.10;80.00
19847;DHT22;10084;50.518;8.588;2023-11-22T00:14:27;6.10;79.90
19847;DHT22;10084;50.518;8.588;2023-11-22T00:16:52;6.10;79.90
19847;DHT22;10084;50.518;8.588;2023-11-22T00:19:19;6.20;79.90
19847;DHT22;10084;50.518;8.588;2023-11-22T00:21:48;6.20;79.90
19847;DHT22;10084;50.518;8.588;2023-11-22T00:24:13;6.20;79.90
19847;DHT22;10084;50.518;8.588;2023-11-22T00:26:40;6.30;79.90
19847;DHT22;10084;50.518;8.588;2023-11-22T00:29:07;6.30;79.90
19847;DHT22;10084;50.518;8.588;2023-11-22T00:31:33;6.30;79.80
19847;DHT22;10084;50.518;8.588;2023-11-22T00:33:59;6.30;79.90
19847;DHT22;10084;50.518;8.588;2023-11-22T00:36:25;6.40;79.90
19847;DHT22;10084;50.518;8.588;2023-11-22T00:38:51;6.40;79.90
19847;DHT22;10084;50.518;8.588;2023-11-22T00:41:17;6.50;79.90
19847;DHT22;10084;50.518;8.588;2023-11-22T00:43:42;6.50;79.80
19847;DHT22;10084;50.518;8.588;2023-11-22T00:46:08;6.50;79.90
19847;DHT22;10084;50.518;8.588;2023-11-22T00:48:34;6.50;79.90
19847;DHT22;10084;50.518;8.588;2023-11-22T00:50:59;6.60;79.90
19847;DHT22;10084;50.518;8.588;2023-11-22T00:53:25;6.60;79.90
19847;DHT22;10084;50.518;8.588;2023-11-22T00:55:51;6.60;79.90
19847;DHT22;10084;50.518;8.588;2023-11-22T00:58:16;6.60;79.90
19847;DHT22;10084;50.518;8.588;2023-11-22T01:00:42;6.70;80.00
19847;DHT22;10084;50.518;8.588;2023-11-22T01:03:08;6.70;79.90
19847;DHT22;10084;50.518;8.588;2023-11-22T01:05:37;6.70;79.90
19847;DHT22;10084;50.518;8.588;2023-11-22T01:08:03;6.70;79.90
19847;DHT22;10084;50.518;8.588;2023-11-22T01:10:29;6.70;79.80
19847;DHT22;10084;50.518;8.588;2023-11-22T01:12:55;6.70;79.80
19847;DHT22;10084;50.518;8.588;2023-11-22T01:15:22;6.70;79.70
19847;DHT22;10084;50.518;8.588;2023-11-22T01:17:48;6.70;79.60
19847;DHT22;10084;50.518;8.588;2023-11-22T01:20:14;6.70;79.60
19847;DHT22;10084;50.518;8.588;2023-11-22T01:22:41;6.70;79.60
19847;DHT22;10084;50.518;8.588;2023-11-22T01:25:08;6.70;79.50
19847;DHT22;10084;50.518;8.588;2023-11-22T01:27:33;6.60;80.20
19847;DHT22;10084;50.518;8.588;2023-11-22T01:29:59;6.60;79.50
19847;DHT22;10084;50.518;8.588;2023-11-22T01:32:25;6.60;79.50
19847;DHT22;10084;50.518;8.588;2023-11-22T01:34:51;6.50;79.50
19847;DHT22;10084;50.518;8.588;2023-11-22T01:37:16;6.50;79.60
19847;DHT22;10084;50.518;8.588;2023-11-22T01:39:42;6.50;79.60
19847;DHT22;10084;50.518;8.588;2023-11-22T01:42:08;6.50;79.60
19847;DHT22;10084;50.518;8.588;2023-11-22T01:44:35;6.40;79.50
19847;DHT22;10084;50.518;8.588;2023-11-22T01:47:01;6.40;79.40
19847;DHT22;10084;50.518;8.588;2023-11-22T01:49:29;6.30;79.30
19847;DHT22;10084;50.518;8.588;2023-11-22T01:51:55;6.30;79.40
19847;DHT22;10084;50.518;8.588;2023-11-22T01:54:22;6.20;79.40
19847;DHT22;10084;50.518;8.588;2023-11-22T01:56:48;6.20;79.40
19847;DHT22;10084;50.518;8.588;2023-11-22T01:59:15;6.20;79.40
19847;DHT22;10084;50.518;8.588;2023-11-22T02:01:42;6.10;79.30
19847;DHT22;10084;50.518;8.588;2023-11-22T02:04:08;6.10;79.30
19847;DHT22;10084;50.518;8.588;2023-11-22T02:06:35;6.00;79.30
19847;DHT22;10084;50.518;8.588;2023-11-22T02:09:02;5.90;79.30
19847;DHT22;10084;50.518;8.588;2023-11-22T02:11:28;5.90;79.30
19847;DHT22;10084;50.518;8.588;2023-11-22T02:13:54;5.90;79.30
19847;DHT22;10084;50.518;8.588;2023-11-22T02:16:20;5.80;79.30
19847;DHT22;10084;50.518;8.588;2023-11-22T02:18:47;5.70;79.20
19847;DHT22;10084;50.518;8.588;2023-11-22T02:21:16;5.70;79.30
19847;DHT22;10084;50.518;8.588;2023-11-22T02:23:42;5.70;79.30
19847;DHT22;10084;50.518;8.588;2023-11-22T02:26:08;5.60;79.30
19847;DHT22;10084;50.518;8.588;2023-11-22T02:28:34;5.60;79.40
19847;DHT22;10084;50.518;8.588;2023-11-22T02:30:59;5.50;79.40
19847;DHT22;10084;50.518;8.588;2023-11-22T02:33:25;5.50;79.30
19847;DHT22;10084;50.518;8.588;2023-11-22T02:35:52;5.40;79.30
19847;DHT22;10084;50.518;8.588;2023-11-22T02:38:17;5.40;79.40
19847;DHT22;10084;50.518;8.588;2023-11-22T02:40:43;5.30;79.30
19847;DHT22;10084;50.518;8.588;2023-11-22T02:43:09;5.20;79.20
19847;DHT22;10084;50.518;8.588;2023-11-22T02:45:37;5.20;79.30
19847;DHT22;10084;50.518;8.588;2023-11-22T02:48:04;5.20;79.40
19847;DHT22;10084;50.518;8.588;2023-11-22T02:50:35;5.10;79.40
19847;DHT22;10084;50.518;8.588;2023-11-22T02:53:03;5.10;79.40
19847;DHT22;10084;50.518;8.588;2023-11-22T02:55:29;5.10;79.50
19847;DHT22;10084;50.518;8.588;2023-11-22T02:57:55;5.00;79.40
19847;DHT22;10084;50.518;8.588;2023-11-22T03:00:21;5.00;79.50
19847;DHT22;10084;50.518;8.588;2023-11-22T03:02:46;5.00;79.50
19847;DHT22;10084;50.518;8.588;2023-11-22T03:05:13;5.00;79.60
19847;DHT22;10084;50.518;8.588;2023-11-22T03:07:41;5.00;79.60
19847;DHT22;10084;50.518;8.588;2023-11-22T03:10:07;5.00;79.60
19847;DHT22;10084;50.518;8.588;2023-11-22T03:12:34;5.00;79.60
19847;DHT22;10084;50.518;8.588;2023-11-22T03:14:59;5.00;79.70
19847;DHT22;10084;50.518;8.588;2023-11-22T03:17:28;5.00;79.70
19847;DHT22;10084;50.518;8.588;2023-11-22T03:19:55;5.00;79.70
19847;DHT22;10084;50.518;8.588;2023-11-22T03:22:23;5.00;79.70
19847;DHT22;10084;50.518;8.588;2023-11-22T03:24:49;5.00;79.70
19847;DHT22;10084;50.518;8.588;2023-11-22T03:27:15;5.00;79.70
19847;DHT22;10084;50.518;8.588;2023-11-22T03:29:41;5.00;79.70
19847;DHT22;10084;50.518;8.588;2023-11-22T03:32:07;5.00;79.60
19847;DHT22;10084;50.518;8.588;2023-11-22T03:34:32;5.00;79.50
19847;DHT22;10084;50.518;8.588;2023-11-22T03:36:59;4.90;79.40
19847;DHT22;10084;50.518;8.588;2023-11-22T03:39:24;4.90;79.40
19847;DHT22;10084;50.518;8.588;2023-11-22T03:41:50;4.80;79.40
19847;DHT22;10084;50.518;8.588;2023-11-22T03:44:16;4.80;79.40
19847;DHT22;10084;50.518;8.588;2023-11-22T03:46:42;4.70;79.40
19847;DHT22;10084;50.518;8.588;2023-11-22T03:49:08;4.70;79.40
19847;DHT22;10084;50.518;8.588;2023-11-22T03:51:35;4.60;79.40
19847;DHT22;10084;50.518;8.588;2023-11-22T03:54:02;4.60;79.40
19847;DHT22;10084;50.518;8.588;2023-11-22T03:56:28;4.50;79.40
19847;DHT22;10084;50.518;8.588;2023-11-22T03:58:55;4.50;79.40
19847;DHT22;10084;50.518;8.588;2023-11-22T04:01:20;4.40;79.30
19847;DHT22;10084;50.518;8.588;2023-11-22T04:03:49;4.40;79.40
19847;DHT22;10084;50.518;8.588;2023-11-22T04:06:16;4.30;79.30
19847;DHT22;10084;50.518;8.588;2023-11-22T04:08:46;4.20;79.30
19847;DHT22;10084;50.518;8.588;2023-11-22T04:11:13;4.20;79.40
19847;DHT22;10084;50.518;8.588;2023-11-22T04:13:39;4.20;79.40
19847;DHT22;10084;50.518;8.588;2023-11-22T04:16:06;4.10;79.40
19847;DHT22;10084;50.518;8.588;2023-11-22T04:18:39;4.10;79.40
19847;DHT22;10084;50.518;8.588;2023-11-22T04:21:08;4.00;79.30
19847;DHT22;10084;50.518;8.588;2023-11-22T04:23:35;4.00;79.30
19847;DHT22;10084;50.518;8.588;2023-11-22T04:26:02;4.00;79.40
19847;DHT22;10084;50.518;8.588;2023-11-22T04:28:28;3.90;79.30
19847;DHT22;10084;50.518;8.588;2023-11-22T04:30:55;3.90;79.30
19847;DHT22;10084;50.518;8.588;2023-11-22T04:33:22;3.80;79.30
19847;DHT22;10084;50.518;8.588;2023-11-22T04:35:51;3.80;79.30
19847;DHT22;10084;50.518;8.588;2023-11-22T04:38:17;3.70;79.30
19847;DHT22;10084;50.518;8.588;2023-11-22T04:40:44;3.70;79.30
19847;DHT22;10084;50.518;8.588;2023-11-22T04:43:10;3.60;79.40
19847;DHT22;10084;50.518;8.588;2023-11-22T04:45:35;3.60;79.40
19847;DHT22;10084;50.518;8.588;2023-11-22T04:48:01;3.60;79.50
19847;DHT22;10084;50.518;8.588;2023-11-22T04:50:27;3.60;79.50
19847;DHT22;10084;50.518;8.588;2023-11-22T04:52:53;3.60;79.50
19847;DHT22;10084;50.518;8.588;2023-11-22T04:55:18;3.50;79.40
19847;DHT22;10084;50.518;8.588;2023-11-22T04:57:45;3.50;79.50
19847;DHT22;10084;50.518;8.588;2023-11-22T05:02:38;3.50;79.00
19847;DHT22;10084;50.518;8.588;2023-11-22T05:05:06;3.50;79.50
19847;DHT22;10084;50.518;8.588;2023-11-22T05:07:32;3.50;79.40
19847;DHT22;10084;50.518;8.588;2023-11-22T05:09:57;3.50;79.40
19847;DHT22;10084;50.518;8.588;2023-11-22T05:12:23;3.50;79.40
19847;DHT22;10084;50.518;8.588;2023-11-22T05:14:49;3.40;79.30
19847;DHT22;10084;50.518;8.588;2023-11-22T05:17:15;3.40;79.90
19847;DHT22;10084;50.518;8.588;2023-11-22T05:19:41;3.40;79.30
19847;DHT22;10084;50.518;8.588;2023-11-22T05:22:06;3.40;79.30
19847;DHT22;10084;50.518;8.588;2023-11-22T05:24:33;3.40;79.30
19847;DHT22;10084;50.518;8.588;2023-11-22T05:27:00;3.30;79.20
19847;DHT22;10084;50.518;8.588;2023-11-22T05:29:27;3.30;79.30
19847;DHT22;10084;50.518;8.588;2023-11-22T05:31:53;3.30;79.30
19847;DHT22;10084;50.518;8.588;2023-11-22T05:34:18;3.30;79.20
19847;DHT22;10084;50.518;8.588;2023-11-22T05:36:44;3.30;79.20
19847;DHT22;10084;50.518;8.588;2023-11-22T05:39:10;3.20;79.00
19847;DHT22;10084;50.518;8.588;2023-11-22T05:41:37;3.20;79.10
19847;DHT22;10084;50.518;8.588;2023-11-22T05:44:03;3.10;79.10
19847;DHT22;10084;50.518;8.588;2023-11-22T05:46:29;3.10;79.00
19847;DHT22;10084;50.518;8.588;2023-11-22T05:48:55;3.00;78.90
19847;DHT22;10084;50.518;8.588;2023-11-22T05:51:21;3.00;79.00
19847;DHT22;10084;50.518;8.588;2023-11-22T05:53:47;2.90;79.10
19847;DHT22;10084;50.518;8.588;2023-11-22T05:56:13;2.90;79.10
19847;DHT22;10084;50.518;8.588;2023-11-22T05:58:39;2.90;79.20
19847;DHT22;10084;50.518;8.588;2023-11-22T06:01:05;2.80;79.20
19847;DHT22;10084;50.518;8.588;2023-11-22T06:03:32;2.80;79.20
19847;DHT22;10084;50.518;8.588;2023-11-22T06:05:58;2.80;79.20
19847;DHT22;10084;50.518;8.588;2023-11-22T06:08:24;2.80;79.20
19847;DHT22;10084;50.518;8.588;2023-11-22T06:10:50;2.80;79.30
19847;DHT22;10084;50.518;8.588;2023-11-22T06:13:17;2.80;79.30
19847;DHT22;10084;50.518;8.588;2023-11-22T06:15:43;2.80;79.20
19847;DHT22;10084;50.518;8.588;2023-11-22T06:18:09;2.80;79.30
19847;DHT22;10084;50.518;8.588;2023-11-22T06:20:35;2.80;79.30
19847;DHT22;10084;50.518;8.588;2023-11-22T06:23:00;2.80;79.30
19847;DHT22;10084;50.518;8.588;2023-11-22T06:25:26;2.80;79.30
19847;DHT22;10084;50.518;8.588;2023-11-22T06:27:52;2.80;79.30
19847;DHT22;10084;50.518;8.588;2023-11-22T06:30:18;2.80;79.60
19847;DHT22;10084;50.518;8.588;2023-11-22T06:32:44;2.80;79.30
19847;DHT22;10084;50.518;8.588;2023-11-22T06:35:10;2.80;79.30
19847;DHT22;10084;50.518;8.588;2023-11-22T06:37:40;2.80;79.20
19847;DHT22;10084;50.518;8.588;2023-11-22T06:40:06;2.70;79.20
19847;DHT22;10084;50.518;8.588;2023-11-22T06:42:33;2.80;79.20
19847;DHT22;10084;50.518;8.588;2023-11-22T06:45:00;2.70;79.80
19847;DHT22;10084;50.518;8.588;2023-11-22T06:47:26;2.70;79.10
19847;DHT22;10084;50.518;8.588;2023-11-22T06:49:55;2.70;79.20
19847;DHT22;10084;50.518;8.588;2023-11-22T06:52:20;2.70;79.20
19847;DHT22;10084;50.518;8.588;2023-11-22T06:54:46;2.70;79.20
19847;DHT22;10084;50.518;8.588;2023-11-22T06:57:12;2.70;79.20
19847;DHT22;10084;50.518;8.588;2023-11-22T06:59:38;2.70;79.30
19847;DHT22;10084;50.518;8.588;2023-11-22T07:02:03;2.70;79.30
19847;DHT22;10084;50.518;8.588;2023-11-22T07:04:29;2.70;79.30
19847;DHT22;10084;50.518;8.588;2023-11-22T07:06:55;2.70;79.40
19847;DHT22;10084;50.518;8.588;2023-11-22T07:09:22;2.70;79.50
19847;DHT22;10084;50.518;8.588;2023-11-22T07:11:47;2.70;79.60
19847;DHT22;10084;50.518;8.588;2023-11-22T07:14:13;2.80;79.70
19847;DHT22;10084;50.518;8.588;2023-11-22T07:16:39;2.80;79.70
19847;DHT22;10084;50.518;8.588;2023-11-22T07:19:05;2.90;79.80
19847;DHT22;10084;50.518;8.588;2023-11-22T07:21:32;3.00;79.90
19847;DHT22;10084;50.518;8.588;2023-11-22T07:23:59;3.10;80.00
19847;DHT22;10084;50.518;8.588;2023-11-22T07:26:25;3.10;80.00
19847;DHT22;10084;50.518;8.588;2023-11-22T07:28:54;3.20;80.00
19847;DHT22;10084;50.518;8.588;2023-11-22T07:31:20;3.40;80.00
19847;DHT22;10084;50.518;8.588;2023-11-22T07:33:46;3.50;79.90
19847;DHT22;10084;50.518;8.588;2023-11-22T07:36:12;3.60;80.00
19847;DHT22;10084;50.518;8.588;2023-11-22T07:38:41;3.80;79.90
19847;DHT22;10084;50.518;8.588;2023-11-22T07:41:08;3.90;79.80
19847;DHT22;10084;50.518;8.588;2023-11-22T07:43:34;4.00;79.80
19847;DHT22;10084;50.518;8.588;2023-11-22T07:46:00;4.20;79.80
19847;DHT22;10084;50.518;8.588;2023-11-22T07:48:26;4.30;79.70
19847;DHT22;10084;50.518;8.588;2023-11-22T07:50:53;4.40;79.60
19847;DHT22;10084;50.518;8.588;2023-11-22T07:53:20;4.60;79.70
19847;DHT22;10084;50.518;8.588;2023-11-22T07:55:45;4.80;79.80
19847;DHT22;10084;50.518;8.588;2023-11-22T07:58:12;4.90;79.70
19847;DHT22;10084;50.518;8.588;2023-11-22T08:00:38;5.10;79.70
19847;DHT22;10084;50.518;8.588;2023-11-22T08:03:04;5.30;79.40
19847;DHT22;10084;50.518;8.588;2023-11-22T08:05:31;5.40;78.90
19847;DHT22;10084;50.518;8.588;2023-11-22T08:08:04;5.40;78.80
19847;DHT22;10084;50.518;8.588;2023-11-22T08:10:36;5.40;78.90
19847;DHT22;10084;50.518;8.588;2023-11-22T08:13:02;5.60;79.10
19847;DHT22;10084;50.518;8.588;2023-11-22T08:15:28;5.80;79.30
19847;DHT22;10084;50.518;8.588;2023-11-22T08:17:54;5.90;79.30
19847;DHT22;10084;50.518;8.588;2023-11-22T08:20:20;6.10;79.20
19847;DHT22;10084;50.518;8.588;2023-11-22T08:22:47;6.20;78.80
19847;DHT22;10084;50.518;8.588;2023-11-22T08:25:17;6.30;78.50
19847;DHT22;10084;50.518;8.588;2023-11-22T08:27:43;6.30;78.30
19847;DHT22;10084;50.518;8.588;2023-11-22T08:30:09;6.30;78.20
19847;DHT22;10084;50.518;8.588;2023-11-22T08:32:42;6.30;78.00
19847;DHT22;10084;50.518;8.588;2023-11-22T08:35:09;6.30;78.00
19847;DHT22;10084;50.518;8.588;2023-11-22T08:37:35;6.30;78.20
19847;DHT22;10084;50.518;8.588;2023-11-22T08:40:07;6.30;78.30
19847;DHT22;10084;50.518;8.588;2023-11-22T08:42:34;6.40;78.50
19847;DHT22;10084;50.518;8.588;2023-11-22T08:45:02;6.60;78.50
19847;DHT22;10084;50.518;8.588;2023-11-22T08:47:28;6.70;78.50
19847;DHT22;10084;50.518;8.588;2023-11-22T08:49:55;6.80;78.20
19847;DHT22;10084;50.518;8.588;2023-11-22T08:52:21;6.90;77.90
19847;DHT22;10084;50.518;8.588;2023-11-22T08:54:50;6.90;77.70
19847;DHT22;10084;50.518;8.588;2023-11-22T08:57:17;6.80;77.60
19847;DHT22;10084;50.518;8.588;2023-11-22T08:59:43;6.90;77.70
19847;DHT22;10084;50.518;8.588;2023-11-22T09:02:09;6.80;77.50
19847;DHT22;10084;50.518;8.588;2023-11-22T09:04:38;6.80;77.50
19847;DHT22;10084;50.518;8.588;2023-11-22T09:07:04;6.80;77.30
19847;DHT22;10084;50.518;8.588;2023-11-22T09:09:31;6.70;77.10
19847;DHT22;10084;50.518;8.588;2023-11-22T09:11:58;6.70;77.00
19847;DHT22;10084;50.518;8.588;2023-11-22T09:14:24;6.70;77.00
19847;DHT22;10084;50.518;8.588;2023-11-22T09:16:50;6.60;76.90
19847;DHT22;10084;50.518;8.588;2023-11-22T09:19:23;6.50;76.80
19847;DHT22;10084;50.518;8.588;2023-11-22T09:21:49;6.40;76.40
19847;DHT22;10084;50.518;8.588;2023-11-22T09:24:15;6.20;76.00
19847;DHT22;10084;50.518;8.588;2023-11-22T09:26:41;6.00;76.20
19847;DHT22;10084;50.518;8.588;2023-11-22T09:29:08;6.00;76.70
19847;DHT22;10084;50.518;8.588;2023-11-22T09:31:35;6.10;77.20
19847;DHT22;10084;50.518;8.588;2023-11-22T09:34:01;6.10;76.80
19847;DHT22;10084;50.518;8.588;2023-11-22T09:36:29;6.10;76.50
19847;DHT22;10084;50.518;8.588;2023-11-22T09:38:58;6.00;76.10
19847;DHT22;10084;50.518;8.588;2023-11-22T09:41:24;6.00;75.70
19847;DHT22;10084;50.518;8.588;2023-11-22T09:43:53;6.00;75.20
19847;DHT22;10084;50.518;8.588;2023-11-22T09:46:20;5.90;75.30
19847;DHT22;10084;50.518;8.588;2023-11-22T09:48:48;5.90;75.40
19847;DHT22;10084;50.518;8.588;2023-11-22T09:51:23;5.80;74.80
19847;DHT22;10084;50.518;8.588;2023-11-22T09:53:57;5.80;74.80
19847;DHT22;10084;50.518;8.588;2023-11-22T09:56:24;5.60;74.40
19847;DHT22;10084;50.518;8.588;2023-11-22T09:58:54;5.50;74.80
19847;DHT22;10084;50.518;8.588;2023-11-22T10:01:22;5.50;75.10
19847;DHT22;10084;50.518;8.588;2023-11-22T10:03:48;5.40;75.10
19847;DHT22;10084;50.518;8.588;2023-11-22T10:06:14;5.30;74.30
19847;DHT22;10084;50.518;8.588;2023-11-22T10:08:43;5.20;74.20
19847;DHT22;10084;50.518;8.588;2023-11-22T10:11:15;5.10;74.50
19847;DHT22;10084;50.518;8.588;2023-11-22T10:13:48;5.00;74.80
19847;DHT22;10084;50.518;8.588;2023-11-22T10:16:14;5.00;75.40
19847;DHT22;10084;50.518;8.588;2023-11-22T10:18:44;5.10;75.80
19847;DHT22;10084;50.518;8.588;2023-11-22T10:21:24;5.20;76.10
19847;DHT22;10084;50.518;8.588;2023-11-22T10:24:03;5.30;75.80
19847;DHT22;10084;50.518;8.588;2023-11-22T10:26:28;5.50;75.80
19847;DHT22;10084;50.518;8.588;2023-11-22T10:28:55;5.60;75.90
19847;DHT22;10084;50.518;8.588;2023-11-22T10:31:23;5.80;75.90
19847;DHT22;10084;50.518;8.588;2023-11-22T10:33:49;6.00;75.90
19847;DHT22;10084;50.518;8.588;2023-11-22T10:36:16;6.10;75.80
19847;DHT22;10084;50.518;8.588;2023-11-22T10:38:47;6.20;75.60
19847;DHT22;10084;50.518;8.588;2023-11-22T10:41:13;6.40;75.50
19847;DHT22;10084;50.518;8.588;2023-11-22T10:43:40;6.60;75.50
19847;DHT22;10084;50.518;8.588;2023-11-22T10:46:08;6.70;75.40
19847;DHT22;10084;50.518;8.588;2023-11-22T10:48:35;6.80;75.00
19847;DHT22;10084;50.518;8.588;2023-11-22T10:51:03;6.90;74.90
19847;DHT22;10084;50.518;8.588;2023-11-22T10:53:34;7.00;74.60
19847;DHT22;10084;50.518;8.588;2023-11-22T10:56:19;7.10;74.60
19847;DHT22;10084;50.518;8.588;2023-11-22T10:58:55;7.30;74.60
19847;DHT22;10084;50.518;8.588;2023-11-22T11:01:24;7.50;74.80
19847;DHT22;10084;50.518;8.588;2023-11-22T11:04:09;7.70;75.00
19847;DHT22;10084;50.518;8.588;2023-11-22T11:06:37;8.00;75.00
19847;DHT22;10084;50.518;8.588;2023-11-22T11:09:04;8.40;75.30
19847;DHT22;10084;50.518;8.588;2023-11-22T11:11:32;8.90;75.50
19847;DHT22;10084;50.518;8.588;2023-11-22T11:13:59;9.40;75.00
19847;DHT22;10084;50.518;8.588;2023-11-22T11:16:26;9.90;73.80
19847;DHT22;10084;50.518;8.588;2023-11-22T11:18:52;10.00;72.00
19847;DHT22;10084;50.518;8.588;2023-11-22T11:21:19;9.80;71.60
19847;DHT22;10084;50.518;8.588;2023-11-22T11:23:45;9.80;72.30
19847;DHT22;10084;50.518;8.588;2023-11-22T11:26:14;9.90;72.40
19847;DHT22;10084;50.518;8.588;2023-11-22T11:28:45;9.80;71.50
19847;DHT22;10084;50.518;8.588;2023-11-22T11:31:11;9.60;70.90
19847;DHT22;10084;50.518;8.588;2023-11-22T11:36:27;9.30;72.20
19847;DHT22;10084;50.518;8.588;2023-11-22T11:38:55;9.30;72.30
19847;DHT22;10084;50.518;8.588;2023-11-22T11:41:33;9.30;72.90
19847;DHT22;10084;50.518;8.588;2023-11-22T11:44:01;9.50;73.70
19847;DHT22;10084;50.518;8.588;2023-11-22T11:46:29;9.60;73.70
19847;DHT22;10084;50.518;8.588;2023-11-22T11:48:55;9.80;73.40
19847;DHT22;10084;50.518;8.588;2023-11-22T11:51:23;9.80;73.40
19847;DHT22;10084;50.518;8.588;2023-11-22T11:53:49;9.90;73.40
19847;DHT22;10084;50.518;8.588;2023-11-22T11:56:15;10.00;73.40
19847;DHT22;10084;50.518;8.588;2023-11-22T11:58:42;10.10;73.40
19847;DHT22;10084;50.518;8.588;2023-11-22T12:01:11;10.20;73.20
19847;DHT22;10084;50.518;8.588;2023-11-22T12:03:36;10.30;73.00
19847;DHT22;10084;50.518;8.588;2023-11-22T12:06:04;10.40;72.90
19847;DHT22;10084;50.518;8.588;2023-11-22T12:08:30;10.40;72.40
19847;DHT22;10084;50.518;8.588;2023-11-22T12:11:02;10.20;70.90
19847;DHT22;10084;50.518;8.588;2023-11-22T12:13:29;9.90;70.30
19847;DHT22;10084;50.518;8.588;2023-11-22T12:15:55;9.60;70.40
19847;DHT22;10084;50.518;8.588;2023-11-22T12:18:22;9.30;70.40
19847;DHT22;10084;50.518;8.588;2023-11-22T12:20:59;9.00;70.10
19847;DHT22;10084;50.518;8.588;2023-11-22T12:23:26;8.90;70.70
19847;DHT22;10084;50.518;8.588;2023-11-22T12:25:59;8.80;71.00
19847;DHT22;10084;50.518;8.588;2023-11-22T12:28:27;8.80;71.30
19847;DHT22;10084;50.518;8.588;2023-11-22T12:30:53;8.80;71.30
19847;DHT22;10084;50.518;8.588;2023-11-22T12:33:19;8.80;71.10
19847;DHT22;10084;50.518;8.588;2023-11-22T12:35:46;8.70;70.30
19847;DHT22;10084;50.518;8.588;2023-11-22T12:38:12;8.60;70.00
19847;DHT22;10084;50.518;8.588;2023-11-22T12:40:42;8.40;70.20
19847;DHT22;10084;50.518;8.588;2023-11-22T12:43:08;8.30;71.00
19847;DHT22;10084;50.518;8.588;2023-11-22T12:45:34;8.20;70.20
19847;DHT22;10084;50.518;8.588;2023-11-22T12:48:25;8.20;70.60
19847;DHT22;10084;50.518;8.588;2023-11-22T12:50:52;8.20;70.80
19847;DHT22;10084;50.518;8.588;2023-11-22T12:53:18;8.30;70.70
19847;DHT22;10084;50.518;8.588;2023-11-22T12:55:48;8.20;69.90
19847;DHT22;10084;50.518;8.588;2023-11-22T12:58:33;8.10;69.70
19847;DHT22;10084;50.518;8.588;2023-11-22T13:00:58;7.90;69.90
19847;DHT22;10084;50.518;8.588;2023-11-22T13:03:27;7.90;69.90
19847;DHT22;10084;50.518;8.588;2023-11-22T13:05:54;7.80;69.80
19847;DHT22;10084;50.518;8.588;2023-11-22T13:08:20;7.80;70.00
19847;DHT22;10084;50.518;8.588;2023-11-22T13:10:48;7.80;70.20
19847;DHT22;10084;50.518;8.588;2023-11-22T13:13:24;7.80;70.20
19847;DHT22;10084;50.518;8.588;2023-11-22T13:15:51;7.90;70.30
19847;DHT22;10084;50.518;8.588;2023-11-22T13:18:17;8.00;70.30
19847;DHT22;10084;50.518;8.588;2023-11-22T13:20:44;8.00;70.20
19847;DHT22;10084;50.518;8.588;2023-11-22T13:23:13;8.10;70.00
19847;DHT22;10084;50.518;8.588;2023-11-22T13:25:39;8.10;69.50
19847;DHT22;10084;50.518;8.588;2023-11-22T13:28:07;8.00;68.80
19847;DHT22;10084;50.518;8.588;2023-11-22T13:30:34;7.80;68.50
19847;DHT22;10084;50.518;8.588;2023-11-22T13:33:00;7.60;68.80
19847;DHT22;10084;50.518;8.588;2023-11-22T13:35:28;7.50;69.00
19847;DHT22;10084;50.518;8.588;2023-11-22T13:37:59;7.40;69.10
19847;DHT22;10084;50.518;8.588;2023-11-22T13:40:27;7.30;69.40
19847;DHT22;10084;50.518;8.588;2023-11-22T13:42:56;7.20;69.30
19847;DHT22;10084;50.518;8.588;2023-11-22T13:45:23;7.20;69.50
19847;DHT22;10084;50.518;8.588;2023-11-22T13:47:52;7.20;69.60
19847;DHT22;10084;50.518;8.588;2023-11-22T13:50:22;7.20;69.50
19847;DHT22;10084;50.518;8.588;2023-11-22T13:52:49;7.30;69.50
19847;DHT22;10084;50.518;8.588;2023-11-22T13:55:15;7.30;69.40
19847;DHT22;10084;50.518;8.588;2023-11-22T13:57:43;7.30;69.30
19847;DHT22;10084;50.518;8.588;2023-11-22T14:00:09;7.20;69.20
19847;DHT22;10084;50.518;8.588;2023-11-22T14:02:40;7.20;69.20
19847;DHT22;10084;50.518;8.588;2023-11-22T14:05:08;7.20;69.20
19847;DHT22;10084;50.518;8.588;2023-11-22T14:07:35;7.20;69.10
19847;DHT22;10084;50.518;8.588;2023-11-22T14:10:02;7.10;69.00
19847;DHT22;10084;50.518;8.588;2023-11-22T14:12:29;7.10;68.90
19847;DHT22;10084;50.518;8.588;2023-11-22T14:14:56;7.00;68.70
19847;DHT22;10084;50.518;8.588;2023-11-22T14:17:22;6.90;68.40
19847;DHT22;10084;50.518;8.588;2023-11-22T14:19:50;6.80;68.70
19847;DHT22;10084;50.518;8.588;2023-11-22T14:22:15;6.70;68.90
19847;DHT22;10084;50.518;8.588;2023-11-22T14:24:43;6.70;68.80
19847;DHT22;10084;50.518;8.588;2023-11-22T14:27:11;6.60;68.60
19847;DHT22;10084;50.518;8.588;2023-11-22T14:29:38;6.50;68.60
19847;DHT22;10084;50.518;8.588;2023-11-22T14:32:04;6.40;68.70
19847;DHT22;10084;50.518;8.588;2023-11-22T14:34:29;6.30;68.60
19847;DHT22;10084;50.518;8.588;2023-11-22T14:36:55;6.30;68.70
19847;DHT22;10084;50.518;8.588;2023-11-22T14:39:21;6.20;68.70
19847;DHT22;10084;50.518;8.588;2023-11-22T14:41:47;6.10;68.80
19847;DHT22;10084;50.518;8.588;2023-11-22T14:44:13;6.10;68.90
19847;DHT22;10084;50.518;8.588;2023-11-22T14:46:38;6.00;68.90
19847;DHT22;10084;50.518;8.588;2023-11-22T14:49:04;5.90;68.90
19847;DHT22;10084;50.518;8.588;2023-11-22T14:51:31;5.90;69.00
19847;DHT22;10084;50.518;8.588;2023-11-22T14:53:59;5.80;69.00
19847;DHT22;10084;50.518;8.588;2023-11-22T14:56:25;5.80;69.00
19847;DHT22;10084;50.518;8.588;2023-11-22T14:58:51;5.70;69.70
19847;DHT22;10084;50.518;8.588;2023-11-22T15:01:20;5.70;69.10
19847;DHT22;10084;50.518;8.588;2023-11-22T15:03:46;5.70;69.10
19847;DHT22;10084;50.518;8.588;2023-11-22T15:06:15;5.60;69.00
19847;DHT22;10084;50.518;8.588;2023-11-22T15:08:40;5.60;69.70
19847;DHT22;10084;50.518;8.588;2023-11-22T15:11:08;5.50;69.00
19847;DHT22;10084;50.518;8.588;2023-11-22T15:13:34;5.50;69.10
19847;DHT22;10084;50.518;8.588;2023-11-22T15:16:02;5.50;69.10
19847;DHT22;10084;50.518;8.588;2023-11-22T15:18:27;5.40;69.10
19847;DHT22;10084;50.518;8.588;2023-11-22T15:20:53;5.40;69.20
19847;DHT22;10084;50.518;8.588;2023-11-22T15:23:19;5.30;69.20
19847;DHT22;10084;50.518;8.588;2023-11-22T15:25:47;5.30;69.30
19847;DHT22;10084;50.518;8.588;2023-11-22T15:28:13;5.30;69.40
19847;DHT22;10084;50.518;8.588;2023-11-22T15:30:47;5.30;69.40
19847;DHT22;10084;50.518;8.588;2023-11-22T15:33:15;5.30;69.40
19847;DHT22;10084;50.518;8.588;2023-11-22T15:35:41;5.20;69.30
19847;DHT22;10084;50.518;8.588;2023-11-22T15:38:07;5.30;69.40
19847;DHT22;10084;50.518;8.588;2023-11-22T15:40:33;5.20;69.40
19847;DHT22;10084;50.518;8.588;2023-11-22T15:42:58;5.20;69.50
19847;DHT22;10084;50.518;8.588;2023-11-22T15:45:24;5.20;69.50
19847;DHT22;10084;50.518;8.588;2023-11-22T15:47:50;5.20;69.60
19847;DHT22;10084;50.518;8.588;2023-11-22T15:50:15;5.10;69.60